sensor_id;sensor_type;location;lat;lon;timestamp;temperature;humidity
5138;DHT22;53959;53.626;11.410;2022-10-16T00:00:44;14.40;99.90
5138;DHT22;53959;53.626;11.410;2022-10-16T00:03:10;14.50;99.90
5138;DHT22;53959;53.626;11.410;2022-10-16T00:05:41;14.40;99.90
5138;DHT22;53959;53.626;11.410;2022-10-16T00:08:09;14.40;99.90
5138;DHT22;53959;53.626;11.410;2022-10-16T00:10:34;14.30;99.90
5138;DHT22;53959;53.626;11.410;2022-10-16T00:13:00;14.30;99.90
5138;DHT22;53959;53.626;11.410;2022-10-16T00:15:26;14.30;99.90
5138;DHT22;53959;53.626;11.410;2022-10-16T00:17:51;14.20;99.90
5138;DHT22;53959;53.626;11.410;2022-10-16T00:20:17;14.20;99.90
5138;DHT22;53959;53.626;11.410;2022-10-16T00:22:43;14.20;99.90
5138;DHT22;53959;53.626;11.410;2022-10-16T00:25:08;14.10;99.90
5138;DHT22;53959;53.626;11.410;2022-10-16T00:27:34;14.00;99.90
5138;DHT22;53959;53.626;11.410;2022-10-16T00:29:59;14.00;99.90
5138;DHT22;53959;53.626;11.410;2022-10-16T00:32:25;13.90;99.90
5138;DHT22;53959;53.626;11.410;2022-10-16T00:34:50;13.90;99.90
5138;DHT22;53959;53.626;11.410;2022-10-16T00:37:16;13.80;99.90
5138;DHT22;53959;53.626;11.410;2022-10-16T00:39:41;13.80;99.90
5138;DHT22;53959;53.626;11.410;2022-10-16T00:42:12;13.70;99.90
5138;DHT22;53959;53.626;11.410;2022-10-16T00:44:46;13.70;99.90
5138;DHT22;53959;53.626;11.410;2022-10-16T00:47:18;13.70;99.90
5138;DHT22;53959;53.626;11.410;2022-10-16T00:49:46;13.60;99.90
5138;DHT22;53959;53.626;11.410;2022-10-16T00:52:13;13.70;99.90
5138;DHT22;53959;53.626;11.410;2022-10-16T00:54:39;13.70;99.90
5138;DHT22;53959;53.626;11.410;2022-10-16T00:57:06;13.60;99.90
5138;DHT22;53959;53.626;11.410;2022-10-16T00:59:35;13.60;99.90
5138;DHT22;53959;53.626;11.410;2022-10-16T01:02:01;13.60;99.90
5138;DHT22;53959;53.626;11.410;2022-10-16T01:04:35;13.60;99.90
5138;DHT22;53959;53.626;11.410;2022-10-16T01:12:28;13.50;99.90
5138;DHT22;53959;53.626;11.410;2022-10-16T01:15:41;13.40;99.90
5138;DHT22;53959;53.626;11.410;2022-10-16T01:18:14;13.40;99.90
5138;DHT22;53959;53.626;11.410;2022-10-16T01:21:01;13.40;99.90
5138;DHT22;53959;53.626;11.410;2022-10-16T01:29:30;13.40;99.90
5138;DHT22;53959;53.626;11.410;2022-10-16T01:32:01;13.40;99.90
5138;DHT22;53959;53.626;11.410;2022-10-16T01:37:47;13.40;99.90
5138;DHT22;53959;53.626;11.410;2022-10-16T01:42:53;13.30;99.90
5138;DHT22;53959;53.626;11.410;2022-10-16T01:45:21;13.30;99.90
5138;DHT22;53959;53.626;11.410;2022-10-16T01:47:48;13.30;99.90
5138;DHT22;53959;53.626;11.410;2022-10-16T01:50:16;13.30;99.90
5138;DHT22;53959;53.626;11.410;2022-10-16T01:52:45;13.30;99.90
5138;DHT22;53959;53.626;11.410;2022-10-16T01:55:14;13.20;99.90
5138;DHT22;53959;53.626;11.410;2022-10-16T01:57:44;13.20;99.90
5138;DHT22;53959;53.626;11.410;2022-10-16T02:00:12;13.20;99.90
5138;DHT22;53959;53.626;11.410;2022-10-16T02:02:42;13.20;99.90
5138;DHT22;53959;53.626;11.410;2022-10-16T02:05:18;13.20;99.90
5138;DHT22;53959;53.626;11.410;2022-10-16T02:07:45;13.20;99.90
5138;DHT22;53959;53.626;11.410;2022-10-16T02:10:10;13.20;99.90
5138;DHT22;53959;53.626;11.410;2022-10-16T02:12:39;13.20;99.90
5138;DHT22;53959;53.626;11.410;2022-10-16T02:15:06;13.10;99.90
5138;DHT22;53959;53.626;11.410;2022-10-16T02:17:32;13.20;99.90
5138;DHT22;53959;53.626;11.410;2022-10-16T02:19:59;13.10;99.90
5138;DHT22;53959;53.626;11.410;2022-10-16T02:22:53;13.10;99.90
5138;DHT22;53959;53.626;11.410;2022-10-16T02:25:30;13.10;99.90
5138;DHT22;53959;53.626;11.410;2022-10-16T02:28:07;13.10;99.90
5138;DHT22;53959;53.626;11.410;2022-10-16T02:30:44;13.10;99.90
5138;DHT22;53959;53.626;11.410;2022-10-16T02:33:11;13.10;99.90
5138;DHT22;53959;53.626;11.410;2022-10-16T02:35:40;13.10;99.90
5138;DHT22;53959;53.626;11.410;2022-10-16T02:38:06;13.00;99.90
5138;DHT22;53959;53.626;11.410;2022-10-16T02:40:32;13.00;99.90
5138;DHT22;53959;53.626;11.410;2022-10-16T02:42:58;13.00;99.90
5138;DHT22;53959;53.626;11.410;2022-10-16T02:45:24;13.00;99.90
5138;DHT22;53959;53.626;11.410;2022-10-16T02:47:49;13.00;99.90
5138;DHT22;53959;53.626;11.410;2022-10-16T02:50:15;13.00;99.90
5138;DHT22;53959;53.626;11.410;2022-10-16T02:52:41;12.90;99.90
5138;DHT22;53959;53.626;11.410;2022-10-16T02:55:07;12.90;99.90
5138;DHT22;53959;53.626;11.410;2022-10-16T02:57:32;12.90;99.90
5138;DHT22;53959;53.626;11.410;2022-10-16T02:59:58;12.90;99.90
5138;DHT22;53959;53.626;11.410;2022-10-16T03:02:24;12.90;99.90
5138;DHT22;53959;53.626;11.410;2022-10-16T03:04:49;12.90;99.90
5138;DHT22;53959;53.626;11.410;2022-10-16T03:07:15;12.80;99.90
5138;DHT22;53959;53.626;11.410;2022-10-16T03:09:41;12.80;99.90
5138;DHT22;53959;53.626;11.410;2022-10-16T03:12:06;12.80;99.90
5138;DHT22;53959;53.626;11.410;2022-10-16T03:14:32;12.80;99.90
5138;DHT22;53959;53.626;11.410;2022-10-16T03:16:57;12.80;99.90
5138;DHT22;53959;53.626;11.410;2022-10-16T03:19:23;12.80;99.90
5138;DHT22;53959;53.626;11.410;2022-10-16T03:21:49;12.70;99.90
5138;DHT22;53959;53.626;11.410;2022-10-16T03:24:14;12.80;99.90
5138;DHT22;53959;53.626;11.410;2022-10-16T03:26:40;12.70;99.90
5138;DHT22;53959;53.626;11.410;2022-10-16T03:29:05;12.70;99.90
5138;DHT22;53959;53.626;11.410;2022-10-16T03:31:31;12.80;99.90
5138;DHT22;53959;53.626;11.410;2022-10-16T03:33:57;12.70;99.90
5138;DHT22;53959;53.626;11.410;2022-10-16T03:36:23;12.70;99.90
5138;DHT22;53959;53.626;11.410;2022-10-16T03:38:48;12.70;99.90
5138;DHT22;53959;53.626;11.410;2022-10-16T03:41:14;12.60;99.90
5138;DHT22;53959;53.626;11.410;2022-10-16T03:43:40;12.60;99.90
5138;DHT22;53959;53.626;11.410;2022-10-16T03:46:05;12.60;99.90
5138;DHT22;53959;53.626;11.410;2022-10-16T03:48:31;12.50;99.90
5138;DHT22;53959;53.626;11.410;2022-10-16T03:50:57;12.50;99.90
5138;DHT22;53959;53.626;11.410;2022-10-16T03:53:23;12.50;99.90
5138;DHT22;53959;53.626;11.410;2022-10-16T03:55:49;12.50;99.90
5138;DHT22;53959;53.626;11.410;2022-10-16T03:58:15;12.50;99.90
5138;DHT22;53959;53.626;11.410;2022-10-16T04:00:44;12.50;99.90
5138;DHT22;53959;53.626;11.410;2022-10-16T04:03:10;12.50;99.90
5138;DHT22;53959;53.626;11.410;2022-10-16T04:05:36;12.50;99.90
5138;DHT22;53959;53.626;11.410;2022-10-16T04:08:02;12.40;99.90
5138;DHT22;53959;53.626;11.410;2022-10-16T04:10:28;12.40;99.90
5138;DHT22;53959;53.626;11.410;2022-10-16T04:12:53;12.40;99.90
5138;DHT22;53959;53.626;11.410;2022-10-16T04:15:21;12.40;99.90
5138;DHT22;53959;53.626;11.410;2022-10-16T04:17:47;12.40;99.90
5138;DHT22;53959;53.626;11.410;2022-10-16T04:20:12;12.30;99.90
5138;DHT22;53959;53.626;11.410;2022-10-16T04:22:38;12.30;99.90
5138;DHT22;53959;53.626;11.410;2022-10-16T04:25:04;12.30;99.90
5138;DHT22;53959;53.626;11.410;2022-10-16T04:27:30;12.30;99.90
5138;DHT22;53959;53.626;11.410;2022-10-16T04:29:57;12.30;99.90
5138;DHT22;53959;53.626;11.410;2022-10-16T04:32:22;12.30;99.90
5138;DHT22;53959;53.626;11.410;2022-10-16T04:34:48;12.30;99.90
5138;DHT22;53959;53.626;11.410;2022-10-16T04:37:13;12.30;99.90
5138;DHT22;53959;53.626;11.410;2022-10-16T04:39:39;12.20;99.90
5138;DHT22;53959;53.626;11.410;2022-10-16T04:42:04;12.20;99.90
5138;DHT22;53959;53.626;11.410;2022-10-16T04:44:30;12.20;99.90
5138;DHT22;53959;53.626;11.410;2022-10-16T04:46:55;12.10;99.90
5138;DHT22;53959;53.626;11.410;2022-10-16T04:49:21;12.10;99.90
5138;DHT22;53959;53.626;11.410;2022-10-16T04:51:46;12.10;99.90
5138;DHT22;53959;53.626;11.410;2022-10-16T04:54:12;12.10;99.90
5138;DHT22;53959;53.626;11.410;2022-10-16T04:56:38;12.10;99.90
5138;DHT22;53959;53.626;11.410;2022-10-16T04:59:12;12.10;99.90
5138;DHT22;53959;53.626;11.410;2022-10-16T05:01:37;12.00;99.90
5138;DHT22;53959;53.626;11.410;2022-10-16T05:04:03;12.00;99.90
5138;DHT22;53959;53.626;11.410;2022-10-16T05:06:28;12.00;99.90
5138;DHT22;53959;53.626;11.410;2022-10-16T05:08:54;12.00;99.90
5138;DHT22;53959;53.626;11.410;2022-10-16T05:11:19;11.90;99.90
5138;DHT22;53959;53.626;11.410;2022-10-16T05:13:45;11.90;99.90
5138;DHT22;53959;53.626;11.410;2022-10-16T05:16:11;11.90;99.90
5138;DHT22;53959;53.626;11.410;2022-10-16T05:18:36;11.90;99.90
5138;DHT22;53959;53.626;11.410;2022-10-16T05:21:02;11.90;99.90
5138;DHT22;53959;53.626;11.410;2022-10-16T05:23:28;11.90;99.90
5138;DHT22;53959;53.626;11.410;2022-10-16T05:25:57;11.90;99.90
5138;DHT22;53959;53.626;11.410;2022-10-16T05:28:30;11.90;99.90
5138;DHT22;53959;53.626;11.410;2022-10-16T05:30:56;11.80;99.90
5138;DHT22;53959;53.626;11.410;2022-10-16T05:33:24;11.90;99.90
5138;DHT22;53959;53.626;11.410;2022-10-16T05:35:50;11.90;99.90
5138;DHT22;53959;53.626;11.410;2022-10-16T05:38:16;11.90;99.90
5138;DHT22;53959;53.626;11.410;2022-10-16T05:40:42;11.90;99.90
5138;DHT22;53959;53.626;11.410;2022-10-16T05:43:08;11.80;99.90
5138;DHT22;53959;53.626;11.410;2022-10-16T05:45:33;11.90;99.90
5138;DHT22;53959;53.626;11.410;2022-10-16T05:47:59;11.80;99.90
5138;DHT22;53959;53.626;11.410;2022-10-16T05:50:25;11.80;99.90
5138;DHT22;53959;53.626;11.410;2022-10-16T05:52:51;11.80;99.90
5138;DHT22;53959;53.626;11.410;2022-10-16T05:55:16;11.80;99.90
5138;DHT22;53959;53.626;11.410;2022-10-16T05:57:42;11.80;99.90
5138;DHT22;53959;53.626;11.410;2022-10-16T06:00:08;11.70;99.90
5138;DHT22;53959;53.626;11.410;2022-10-16T06:02:34;11.80;99.90
5138;DHT22;53959;53.626;11.410;2022-10-16T06:04:59;11.70;99.90
5138;DHT22;53959;53.626;11.410;2022-10-16T06:07:25;11.80;99.90
5138;DHT22;53959;53.626;11.410;2022-10-16T06:09:51;11.70;99.90
5138;DHT22;53959;53.626;11.410;2022-10-16T06:12:18;11.70;99.90
5138;DHT22;53959;53.626;11.410;2022-10-16T06:14:45;11.70;99.90
5138;DHT22;53959;53.626;11.410;2022-10-16T06:17:12;11.70;99.90
5138;DHT22;53959;53.626;11.410;2022-10-16T06:19:38;11.70;99.90
5138;DHT22;53959;53.626;11.410;2022-10-16T06:22:04;11.70;99.90
5138;DHT22;53959;53.626;11.410;2022-10-16T06:24:29;11.70;99.90
5138;DHT22;53959;53.626;11.410;2022-10-16T06:26:55;11.60;99.90
5138;DHT22;53959;53.626;11.410;2022-10-16T06:29:20;11.70;99.90
5138;DHT22;53959;53.626;11.410;2022-10-16T06:31:46;11.70;99.90
5138;DHT22;53959;53.626;11.410;2022-10-16T06:34:12;11.70;99.90
5138;DHT22;53959;53.626;11.410;2022-10-16T06:36:38;11.70;99.90
5138;DHT22;53959;53.626;11.410;2022-10-16T06:39:04;11.80;99.90
5138;DHT22;53959;53.626;11.410;2022-10-16T06:41:30;11.70;99.90
5138;DHT22;53959;53.626;11.410;2022-10-16T06:43:56;11.80;99.90
5138;DHT22;53959;53.626;11.410;2022-10-16T06:46:23;11.80;99.90
5138;DHT22;53959;53.626;11.410;2022-10-16T06:48:49;11.80;99.90
5138;DHT22;53959;53.626;11.410;2022-10-16T06:51:17;11.70;99.90
5138;DHT22;53959;53.626;11.410;2022-10-16T06:53:45;11.70;99.90
5138;DHT22;53959;53.626;11.410;2022-10-16T06:56:22;11.70;99.90
5138;DHT22;53959;53.626;11.410;2022-10-16T06:58:49;11.70;99.90
5138;DHT22;53959;53.626;11.410;2022-10-16T07:01:16;11.70;99.90
5138;DHT22;53959;53.626;11.410;2022-10-16T07:03:44;11.70;99.90
5138;DHT22;53959;53.626;11.410;2022-10-16T07:06:12;11.70;99.90
5138;DHT22;53959;53.626;11.410;2022-10-16T07:08:40;11.70;99.90
5138;DHT22;53959;53.626;11.410;2022-10-16T07:11:08;11.70;99.90
5138;DHT22;53959;53.626;11.410;2022-10-16T07:13:38;11.70;99.90
5138;DHT22;53959;53.626;11.410;2022-10-16T07:16:16;11.70;99.90
5138;DHT22;53959;53.626;11.410;2022-10-16T07:18:42;11.70;99.90
5138;DHT22;53959;53.626;11.410;2022-10-16T07:21:10;11.70;99.90
5138;DHT22;53959;53.626;11.410;2022-10-16T07:23:37;11.70;99.90
5138;DHT22;53959;53.626;11.410;2022-10-16T07:26:04;11.70;99.90
5138;DHT22;53959;53.626;11.410;2022-10-16T07:28:29;11.80;99.90
5138;DHT22;53959;53.626;11.410;2022-10-16T07:30:55;11.80;99.90
5138;DHT22;53959;53.626;11.410;2022-10-16T07:33:21;11.90;99.90
5138;DHT22;53959;53.626;11.410;2022-10-16T07:35:51;11.90;99.90
5138;DHT22;53959;53.626;11.410;2022-10-16T07:38:17;12.00;99.90
5138;DHT22;53959;53.626;11.410;2022-10-16T07:43:14;12.10;99.90
5138;DHT22;53959;53.626;11.410;2022-10-16T07:45:48;12.10;99.90
5138;DHT22;53959;53.626;11.410;2022-10-16T07:48:14;12.20;99.90
5138;DHT22;53959;53.626;11.410;2022-10-16T07:50:40;12.20;99.90
5138;DHT22;53959;53.626;11.410;2022-10-16T07:53:06;12.30;99.90
5138;DHT22;53959;53.626;11.410;2022-10-16T07:55:32;12.40;99.90
5138;DHT22;53959;53.626;11.410;2022-10-16T07:57:57;12.40;99.90
5138;DHT22;53959;53.626;11.410;2022-10-16T08:00:23;12.50;99.90
5138;DHT22;53959;53.626;11.410;2022-10-16T08:02:48;12.60;99.90
5138;DHT22;53959;53.626;11.410;2022-10-16T08:05:14;12.70;99.90
5138;DHT22;53959;53.626;11.410;2022-10-16T08:07:39;12.70;99.90
5138;DHT22;53959;53.626;11.410;2022-10-16T08:10:05;12.80;99.90
5138;DHT22;53959;53.626;11.410;2022-10-16T08:12:31;12.90;99.90
5138;DHT22;53959;53.626;11.410;2022-10-16T08:14:56;13.00;99.90
5138;DHT22;53959;53.626;11.410;2022-10-16T08:17:22;13.00;99.90
5138;DHT22;53959;53.626;11.410;2022-10-16T08:19:47;13.10;99.90
5138;DHT22;53959;53.626;11.410;2022-10-16T08:22:14;13.10;99.90
5138;DHT22;53959;53.626;11.410;2022-10-16T08:24:40;13.20;99.90
5138;DHT22;53959;53.626;11.410;2022-10-16T08:27:06;13.30;99.90
5138;DHT22;53959;53.626;11.410;2022-10-16T08:29:32;13.50;99.90
5138;DHT22;53959;53.626;11.410;2022-10-16T08:31:58;13.60;99.90
5138;DHT22;53959;53.626;11.410;2022-10-16T08:34:23;13.70;99.90
5138;DHT22;53959;53.626;11.410;2022-10-16T08:36:49;13.80;99.90
5138;DHT22;53959;53.626;11.410;2022-10-16T08:39:15;13.80;99.90
5138;DHT22;53959;53.626;11.410;2022-10-16T08:47:07;14.20;99.90
5138;DHT22;53959;53.626;11.410;2022-10-16T08:49:58;14.20;99.90
5138;DHT22;53959;53.626;11.410;2022-10-16T08:52:29;14.30;99.90
5138;DHT22;53959;53.626;11.410;2022-10-16T08:54:56;14.30;99.90
5138;DHT22;53959;53.626;11.410;2022-10-16T08:57:24;14.50;99.90
5138;DHT22;53959;53.626;11.410;2022-10-16T08:59:50;14.40;99.90
5138;DHT22;53959;53.626;11.410;2022-10-16T09:02:44;14.40;99.90
5138;DHT22;53959;53.626;11.410;2022-10-16T09:08:27;14.50;99.90
5138;DHT22;53959;53.626;11.410;2022-10-16T09:13:48;14.70;99.90
5138;DHT22;53959;53.626;11.410;2022-10-16T09:16:28;14.90;99.90
5138;DHT22;53959;53.626;11.410;2022-10-16T09:19:03;15.00;99.90
5138;DHT22;53959;53.626;11.410;2022-10-16T09:21:43;15.20;99.90
5138;DHT22;53959;53.626;11.410;2022-10-16T09:24:18;15.20;99.90
5138;DHT22;53959;53.626;11.410;2022-10-16T09:26:45;15.20;99.90
5138;DHT22;53959;53.626;11.410;2022-10-16T09:29:13;15.40;99.90
5138;DHT22;53959;53.626;11.410;2022-10-16T09:31:39;15.50;99.90
5138;DHT22;53959;53.626;11.410;2022-10-16T09:34:05;15.60;99.90
5138;DHT22;53959;53.626;11.410;2022-10-16T09:36:40;15.50;99.90
5138;DHT22;53959;53.626;11.410;2022-10-16T09:39:09;15.50;99.90
5138;DHT22;53959;53.626;11.410;2022-10-16T09:41:40;15.60;99.90
5138;DHT22;53959;53.626;11.410;2022-10-16T09:44:19;15.60;99.90
5138;DHT22;53959;53.626;11.410;2022-10-16T09:46:45;15.70;99.90
5138;DHT22;53959;53.626;11.410;2022-10-16T09:49:22;15.70;99.90
5138;DHT22;53959;53.626;11.410;2022-10-16T09:51:49;15.90;99.90
5138;DHT22;53959;53.626;11.410;2022-10-16T09:54:20;16.10;99.90
5138;DHT22;53959;53.626;11.410;2022-10-16T09:56:46;16.20;99.90
5138;DHT22;53959;53.626;11.410;2022-10-16T09:59:19;16.20;99.90
5138;DHT22;53959;53.626;11.410;2022-10-16T10:01:54;16.20;99.90
5138;DHT22;53959;53.626;11.410;2022-10-16T10:04:23;16.40;99.90
5138;DHT22;53959;53.626;11.410;2022-10-16T10:06:51;16.40;99.90
5138;DHT22;53959;53.626;11.410;2022-10-16T10:09:26;16.50;99.90
5138;DHT22;53959;53.626;11.410;2022-10-16T10:12:02;16.50;99.90
5138;DHT22;53959;53.626;11.410;2022-10-16T10:17:19;16.60;99.90
5138;DHT22;53959;53.626;11.410;2022-10-16T10:20:34;16.70;99.90
5138;DHT22;53959;53.626;11.410;2022-10-16T10:22:42;16.60;99.90
5138;DHT22;53959;53.626;11.410;2022-10-16T10:33:29;16.50;99.90
5138;DHT22;53959;53.626;11.410;2022-10-16T10:41:24;16.70;99.90
5138;DHT22;53959;53.626;11.410;2022-10-16T10:44:16;16.80;99.90
5138;DHT22;53959;53.626;11.410;2022-10-16T10:57:51;17.10;99.90
5138;DHT22;53959;53.626;11.410;2022-10-16T11:08:50;17.50;99.90
5138;DHT22;53959;53.626;11.410;2022-10-16T11:11:34;17.60;99.90
5138;DHT22;53959;53.626;11.410;2022-10-16T11:14:13;17.80;99.90
5138;DHT22;53959;53.626;11.410;2022-10-16T11:19:45;17.80;1.00
5138;DHT22;53959;53.626;11.410;2022-10-16T11:22:30;17.80;99.90
5138;DHT22;53959;53.626;11.410;2022-10-16T11:25:15;17.80;1.00
5138;DHT22;53959;53.626;11.410;2022-10-16T11:30:29;18.00;1.00
5138;DHT22;53959;53.626;11.410;2022-10-16T11:35:57;18.00;1.00
5138;DHT22;53959;53.626;11.410;2022-10-16T11:41:23;18.20;99.90
5138;DHT22;53959;53.626;11.410;2022-10-16T11:46:32;18.30;99.90
5138;DHT22;53959;53.626;11.410;2022-10-16T11:49:20;18.40;99.90
5138;DHT22;53959;53.626;11.410;2022-10-16T11:51:59;18.50;1.00
5138;DHT22;53959;53.626;11.410;2022-10-16T11:59:52;18.60;1.00
5138;DHT22;53959;53.626;11.410;2022-10-16T12:02:32;19.00;99.90
5138;DHT22;53959;53.626;11.410;2022-10-16T12:05:16;18.80;99.90
5138;DHT22;53959;53.626;11.410;2022-10-16T12:08:09;18.70;99.90
5138;DHT22;53959;53.626;11.410;2022-10-16T12:10:37;18.50;85.10
5138;DHT22;53959;53.626;11.410;2022-10-16T12:13:05;18.50;1.00
5138;DHT22;53959;53.626;11.410;2022-10-16T12:15:50;18.50;1.00
5138;DHT22;53959;53.626;11.410;2022-10-16T12:18:22;18.50;1.00
5138;DHT22;53959;53.626;11.410;2022-10-16T12:20:55;18.70;1.00
5138;DHT22;53959;53.626;11.410;2022-10-16T12:23:24;18.70;99.90
5138;DHT22;53959;53.626;11.410;2022-10-16T12:25:55;18.70;99.90
5138;DHT22;53959;53.626;11.410;2022-10-16T12:28:27;18.80;99.90
5138;DHT22;53959;53.626;11.410;2022-10-16T12:31:01;18.90;99.90
5138;DHT22;53959;53.626;11.410;2022-10-16T12:33:29;18.60;99.90
5138;DHT22;53959;53.626;11.410;2022-10-16T12:35:55;18.70;99.90
5138;DHT22;53959;53.626;11.410;2022-10-16T12:38:27;18.60;99.90
5138;DHT22;53959;53.626;11.410;2022-10-16T12:43:38;18.60;99.90
5138;DHT22;53959;53.626;11.410;2022-10-16T12:51:41;19.20;99.90
5138;DHT22;53959;53.626;11.410;2022-10-16T13:10:28;21.00;1.00
5138;DHT22;53959;53.626;11.410;2022-10-16T13:13:16;19.30;1.00
5138;DHT22;53959;53.626;11.410;2022-10-16T13:15:50;19.10;1.00
5138;DHT22;53959;53.626;11.410;2022-10-16T13:18:40;19.60;1.00
5138;DHT22;53959;53.626;11.410;2022-10-16T13:26:30;22.30;99.90
5138;DHT22;53959;53.626;11.410;2022-10-16T13:29:00;20.50;99.90
5138;DHT22;53959;53.626;11.410;2022-10-16T13:31:26;20.00;99.90
5138;DHT22;53959;53.626;11.410;2022-10-16T13:33:55;19.20;1.00
5138;DHT22;53959;53.626;11.410;2022-10-16T13:36:27;18.60;1.00
5138;DHT22;53959;53.626;11.410;2022-10-16T13:39:14;18.40;1.00
5138;DHT22;53959;53.626;11.410;2022-10-16T13:41:43;18.10;1.00
5138;DHT22;53959;53.626;11.410;2022-10-16T13:44:14;18.20;46.50
5138;DHT22;53959;53.626;11.410;2022-10-16T13:46:40;18.10;75.70
5138;DHT22;53959;53.626;11.410;2022-10-16T13:49:15;18.20;99.90
5138;DHT22;53959;53.626;11.410;2022-10-16T13:51:57;18.20;99.90
5138;DHT22;53959;53.626;11.410;2022-10-16T13:54:23;18.10;99.90
5138;DHT22;53959;53.626;11.410;2022-10-16T13:56:49;18.10;99.90
5138;DHT22;53959;53.626;11.410;2022-10-16T13:59:26;18.40;99.90
5138;DHT22;53959;53.626;11.410;2022-10-16T14:01:56;18.40;99.90
5138;DHT22;53959;53.626;11.410;2022-10-16T14:04:23;18.40;99.90
5138;DHT22;53959;53.626;11.410;2022-10-16T14:06:51;18.10;99.90
5138;DHT22;53959;53.626;11.410;2022-10-16T14:09:25;18.10;99.90
5138;DHT22;53959;53.626;11.410;2022-10-16T14:11:58;18.00;99.90
5138;DHT22;53959;53.626;11.410;2022-10-16T14:14:25;18.10;99.90
5138;DHT22;53959;53.626;11.410;2022-10-16T14:16:52;18.20;99.90
5138;DHT22;53959;53.626;11.410;2022-10-16T14:19:26;18.40;99.90
5138;DHT22;53959;53.626;11.410;2022-10-16T14:21:53;18.30;99.90
5138;DHT22;53959;53.626;11.410;2022-10-16T14:26:50;18.20;1.00
5138;DHT22;53959;53.626;11.410;2022-10-16T14:29:18;18.20;1.00
5138;DHT22;53959;53.626;11.410;2022-10-16T14:32:03;18.30;1.00
5138;DHT22;53959;53.626;11.410;2022-10-16T14:34:34;18.20;1.00
5138;DHT22;53959;53.626;11.410;2022-10-16T14:37:06;18.10;1.00
5138;DHT22;53959;53.626;11.410;2022-10-16T14:39:34;18.20;1.00
5138;DHT22;53959;53.626;11.410;2022-10-16T14:42:00;18.10;1.00
5138;DHT22;53959;53.626;11.410;2022-10-16T14:44:30;18.00;1.00
5138;DHT22;53959;53.626;11.410;2022-10-16T14:46:56;18.10;1.00
5138;DHT22;53959;53.626;11.410;2022-10-16T14:49:23;18.10;1.00
5138;DHT22;53959;53.626;11.410;2022-10-16T14:51:49;17.90;1.00
5138;DHT22;53959;53.626;11.410;2022-10-16T14:54:16;17.80;1.00
5138;DHT22;53959;53.626;11.410;2022-10-16T14:59:25;18.00;1.00
5138;DHT22;53959;53.626;11.410;2022-10-16T15:01:53;17.70;1.00
5138;DHT22;53959;53.626;11.410;2022-10-16T15:04:18;17.80;41.50
5138;DHT22;53959;53.626;11.410;2022-10-16T15:06:44;17.70;39.10
5138;DHT22;53959;53.626;11.410;2022-10-16T15:09:10;17.60;76.00
5138;DHT22;53959;53.626;11.410;2022-10-16T15:11:36;17.50;99.90
5138;DHT22;53959;53.626;11.410;2022-10-16T15:14:02;17.60;99.90
5138;DHT22;53959;53.626;11.410;2022-10-16T15:16:29;17.50;99.90
5138;DHT22;53959;53.626;11.410;2022-10-16T15:18:54;17.50;99.90
5138;DHT22;53959;53.626;11.410;2022-10-16T15:21:31;17.40;99.90
5138;DHT22;53959;53.626;11.410;2022-10-16T15:23:58;17.50;99.90
5138;DHT22;53959;53.626;11.410;2022-10-16T15:26:28;17.30;99.90
5138;DHT22;53959;53.626;11.410;2022-10-16T15:28:54;17.30;99.90
5138;DHT22;53959;53.626;11.410;2022-10-16T15:31:20;17.20;99.90
5138;DHT22;53959;53.626;11.410;2022-10-16T15:33:50;17.10;99.90
5138;DHT22;53959;53.626;11.410;2022-10-16T15:36:28;17.00;1.00
5138;DHT22;53959;53.626;11.410;2022-10-16T15:38:54;16.90;1.00
5138;DHT22;53959;53.626;11.410;2022-10-16T15:41:20;16.90;27.00
5138;DHT22;53959;53.626;11.410;2022-10-16T15:43:48;16.80;99.90
5138;DHT22;53959;53.626;11.410;2022-10-16T15:46:15;16.70;99.90
5138;DHT22;53959;53.626;11.410;2022-10-16T15:48:42;16.60;99.90
5138;DHT22;53959;53.626;11.410;2022-10-16T15:51:09;16.60;1.00
5138;DHT22;53959;53.626;11.410;2022-10-16T15:53:35;16.50;1.00
5138;DHT22;53959;53.626;11.410;2022-10-16T15:56:05;16.50;99.90
5138;DHT22;53959;53.626;11.410;2022-10-16T15:58:31;16.50;99.90
5138;DHT22;53959;53.626;11.410;2022-10-16T16:00:58;16.30;1.00
5138;DHT22;53959;53.626;11.410;2022-10-16T16:03:27;16.30;3.00
5138;DHT22;53959;53.626;11.410;2022-10-16T16:05:53;16.30;99.90
5138;DHT22;53959;53.626;11.410;2022-10-16T16:08:18;16.10;99.90
5138;DHT22;53959;53.626;11.410;2022-10-16T16:10:44;16.00;1.00
5138;DHT22;53959;53.626;11.410;2022-10-16T16:13:09;16.00;99.90
5138;DHT22;53959;53.626;11.410;2022-10-16T16:15:39;16.00;99.90
5138;DHT22;53959;53.626;11.410;2022-10-16T16:18:05;15.90;1.00
5138;DHT22;53959;53.626;11.410;2022-10-16T16:20:31;15.80;99.90
5138;DHT22;53959;53.626;11.410;2022-10-16T16:22:56;15.80;1.00
5138;DHT22;53959;53.626;11.410;2022-10-16T16:25:22;15.80;76.60
5138;DHT22;53959;53.626;11.410;2022-10-16T16:27:47;15.70;99.90
5138;DHT22;53959;53.626;11.410;2022-10-16T16:30:13;15.70;99.90
5138;DHT22;53959;53.626;11.410;2022-10-16T16:32:39;15.60;99.90
5138;DHT22;53959;53.626;11.410;2022-10-16T16:35:04;15.50;1.00
5138;DHT22;53959;53.626;11.410;2022-10-16T16:37:30;15.40;99.90
5138;DHT22;53959;53.626;11.410;2022-10-16T16:39:56;15.40;1.00
5138;DHT22;53959;53.626;11.410;2022-10-16T16:42:26;15.40;1.00
5138;DHT22;53959;53.626;11.410;2022-10-16T16:44:52;15.30;1.00
5138;DHT22;53959;53.626;11.410;2022-10-16T16:47:18;15.30;69.90
5138;DHT22;53959;53.626;11.410;2022-10-16T16:49:44;15.20;99.90
5138;DHT22;53959;53.626;11.410;2022-10-16T16:52:12;15.10;1.00
5138;DHT22;53959;53.626;11.410;2022-10-16T16:54:37;15.00;99.90
5138;DHT22;53959;53.626;11.410;2022-10-16T16:57:03;14.90;99.90
5138;DHT22;53959;53.626;11.410;2022-10-16T16:59:29;15.00;1.00
5138;DHT22;53959;53.626;11.410;2022-10-16T17:01:58;14.90;1.00
5138;DHT22;53959;53.626;11.410;2022-10-16T17:04:24;14.80;1.00
5138;DHT22;53959;53.626;11.410;2022-10-16T17:06:49;14.80;13.80
5138;DHT22;53959;53.626;11.410;2022-10-16T17:09:15;14.70;99.90
5138;DHT22;53959;53.626;11.410;2022-10-16T17:11:41;14.60;99.90
5138;DHT22;53959;53.626;11.410;2022-10-16T17:14:08;14.60;99.90
5138;DHT22;53959;53.626;11.410;2022-10-16T17:16:36;14.50;99.90
5138;DHT22;53959;53.626;11.410;2022-10-16T17:19:04;14.60;99.90
5138;DHT22;53959;53.626;11.410;2022-10-16T17:21:30;14.50;99.90
5138;DHT22;53959;53.626;11.410;2022-10-16T17:23:57;14.50;99.90
5138;DHT22;53959;53.626;11.410;2022-10-16T17:26:23;14.40;99.90
5138;DHT22;53959;53.626;11.410;2022-10-16T17:28:53;14.20;99.90
5138;DHT22;53959;53.626;11.410;2022-10-16T17:31:21;14.10;99.90
5138;DHT22;53959;53.626;11.410;2022-10-16T17:33:47;14.10;99.90
5138;DHT22;53959;53.626;11.410;2022-10-16T17:36:13;14.10;99.90
5138;DHT22;53959;53.626;11.410;2022-10-16T17:38:40;14.00;99.90
5138;DHT22;53959;53.626;11.410;2022-10-16T17:41:18;14.00;99.90
5138;DHT22;53959;53.626;11.410;2022-10-16T17:43:45;14.00;99.90